createdAt,value
2022-12-05T00:01:17.353Z,-8.16
2022-12-05T00:03:45.440Z,-8.14
2022-12-05T00:06:12.240Z,-8.17
2022-12-05T00:08:39.176Z,-8.15
2022-12-05T00:11:14.214Z,-8.17
2022-12-05T00:13:42.643Z,-8.28
2022-12-05T00:16:12.030Z,-8.29
2022-12-05T00:18:38.900Z,-8.34
2022-12-05T00:21:07.080Z,-8.25
2022-12-05T00:23:34.205Z,-8.27
2022-12-05T00:26:05.175Z,-8.28
2022-12-05T00:28:33.237Z,-8.29
2022-12-05T00:31:05.922Z,-8.30
2022-12-05T00:33:32.612Z,-8.33
2022-12-05T00:36:04.623Z,-8.36
2022-12-05T00:38:31.912Z,-8.47
2022-12-05T00:41:04.314Z,-8.38
2022-12-05T00:43:31.834Z,-8.40
2022-12-05T00:46:10.109Z,-8.48
2022-12-05T00:48:37.747Z,-8.41
2022-12-05T00:51:10.888Z,-8.45
2022-12-05T00:53:38.160Z,-8.42
2022-12-05T00:56:07.953Z,-8.44
2022-12-05T00:58:34.676Z,-8.46
2022-12-05T01:01:35.533Z,-8.50
2022-12-05T01:04:15.958Z,-8.50
2022-12-05T01:06:43.352Z,-8.51
2022-12-05T01:09:13.598Z,-8.54
2022-12-05T01:11:41.743Z,-8.53
2022-12-05T01:14:10.511Z,-8.53
2022-12-05T01:16:39.180Z,-8.59
2022-12-05T01:19:14.944Z,-8.56
2022-12-05T01:21:42.758Z,-8.59
2022-12-05T01:24:10.898Z,-8.58
2022-12-05T01:26:37.712Z,-8.65
2022-12-05T01:29:05.396Z,-8.66
2022-12-05T01:31:36.478Z,-8.60
2022-12-05T01:34:06.305Z,-8.61
2022-12-05T01:36:33.667Z,-8.64
2022-12-05T01:39:00.477Z,-8.64
2022-12-05T01:41:30.788Z,-8.74
2022-12-05T01:44:03.491Z,-8.71
2022-12-05T01:46:32.893Z,-8.67
2022-12-05T01:49:11.438Z,-8.72
2022-12-05T01:51:47.579Z,-8.81
2022-12-05T01:54:16.913Z,-8.71
2022-12-05T01:56:48.220Z,-8.83
2022-12-05T01:59:17.135Z,-8.73
2022-12-05T02:01:44.373Z,-8.73
2022-12-05T02:04:11.430Z,-8.76
2022-12-05T02:06:39.164Z,-8.75
2022-12-05T02:09:06.448Z,-8.76
2022-12-05T02:11:34.526Z,-8.87
2022-12-05T02:14:15.846Z,-8.76
2022-12-05T02:17:04.432Z,-8.89
2022-12-05T02:19:57.126Z,-8.80
2022-12-05T02:22:43.880Z,-8.91
2022-12-05T02:25:28.755Z,-8.82
2022-12-05T02:28:28.050Z,-8.94
2022-12-05T02:30:59.896Z,-8.83
2022-12-05T02:33:35.954Z,-8.87
2022-12-05T02:36:11.366Z,-8.85
2022-12-05T02:38:56.284Z,-8.96
2022-12-05T02:41:52.071Z,-8.88
2022-12-05T02:44:28.933Z,-8.86
2022-12-05T02:46:56.909Z,-8.97
2022-12-05T02:49:30.558Z,-8.87
2022-12-05T02:51:59.963Z,-8.90
2022-12-05T02:54:39.698Z,-8.86
2022-12-05T02:57:08.546Z,-8.88
2022-12-05T02:59:35.842Z,-8.87
2022-12-05T03:02:02.558Z,-8.97
2022-12-05T03:04:31.285Z,-8.90
2022-12-05T03:07:00.759Z,-8.93
2022-12-05T03:09:39.671Z,-8.89
2022-12-05T03:12:23.440Z,-8.90
2022-12-05T03:15:02.111Z,-8.93
2022-12-05T03:17:34.455Z,-9.03
2022-12-05T03:20:07.832Z,-9.05
2022-12-05T03:22:46.664Z,-8.98
2022-12-05T03:25:14.112Z,-9.04
2022-12-05T03:27:53.145Z,-8.95
2022-12-05T03:30:22.460Z,-8.95
2022-12-05T03:32:58.317Z,-8.94
2022-12-05T03:35:31.246Z,-8.98
2022-12-05T03:38:29.767Z,-8.94
2022-12-05T03:41:07.791Z,-8.96
2022-12-05T03:43:46.720Z,-8.96
2022-12-05T03:46:21.711Z,-8.97
2022-12-05T03:49:06.923Z,-8.97
2022-12-05T03:52:02.948Z,-8.97
2022-12-05T03:54:36.377Z,-8.96
2022-12-05T03:57:09.274Z,-8.96
2022-12-05T03:59:44.781Z,-8.97
2022-12-05T04:02:16.802Z,-8.97
2022-12-05T04:04:59.663Z,-8.98
2022-12-05T04:07:29.454Z,-8.99
2022-12-05T04:09:59.374Z,-9.05
2022-12-05T04:12:30.335Z,-8.98
2022-12-05T04:15:02.130Z,-9.02
2022-12-05T04:17:38.700Z,-9.00
2022-12-05T04:20:37.446Z,-9.09
2022-12-05T04:23:04.319Z,-9.01
2022-12-05T04:25:39.639Z,-9.12
2022-12-05T04:28:27.947Z,-9.12
2022-12-05T04:31:22.962Z,-9.04
2022-12-05T04:33:57.189Z,-9.06
2022-12-05T04:36:35.603Z,-9.05
2022-12-05T04:39:17.947Z,-9.05
2022-12-05T04:42:01.072Z,-9.03
2022-12-05T04:44:33.538Z,-9.05
2022-12-05T04:47:04.061Z,-9.05
2022-12-05T04:49:33.335Z,-9.06
2022-12-05T04:52:04.365Z,-9.04
2022-12-05T04:54:37.147Z,-9.04
2022-12-05T04:57:29.511Z,-9.06
2022-12-05T04:59:56.714Z,-9.18
2022-12-05T05:02:33.949Z,-9.06
2022-12-05T05:05:02.875Z,-9.08
2022-12-05T05:07:30.038Z,-9.10
2022-12-05T05:09:57.430Z,-9.20
2022-12-05T05:12:24.302Z,-9.16
2022-12-05T05:14:51.212Z,-9.09
2022-12-05T05:17:17.843Z,-9.19
2022-12-05T05:19:44.478Z,-9.10
2022-12-05T05:22:11.473Z,-9.10
2022-12-05T05:24:38.094Z,-9.11
2022-12-05T05:27:04.703Z,-9.09
2022-12-05T05:29:31.666Z,-9.08
2022-12-05T05:31:58.315Z,-9.06
2022-12-05T05:34:26.623Z,-9.07
2022-12-05T05:36:53.539Z,-9.08
2022-12-05T05:39:20.257Z,-9.00
2022-12-05T05:41:46.897Z,-8.99
2022-12-05T05:44:13.843Z,-8.99
2022-12-05T05:46:40.578Z,-8.96
2022-12-05T05:49:07.432Z,-9.09
2022-12-05T05:51:34.592Z,-8.95
2022-12-05T05:54:01.576Z,-8.96
2022-12-05T05:56:29.483Z,-8.92
2022-12-05T05:58:58.948Z,-8.94
2022-12-05T06:01:25.666Z,-8.91
2022-12-05T06:03:52.750Z,-8.89
2022-12-05T06:06:20.824Z,-8.97
2022-12-05T06:08:48.157Z,-8.85
2022-12-05T06:11:23.158Z,-8.83
2022-12-05T06:13:52.431Z,-8.81
2022-12-05T06:16:21.339Z,-8.79
2022-12-05T06:18:49.739Z,-8.76
2022-12-05T06:21:16.868Z,-8.76
2022-12-05T06:23:43.866Z,-8.75
2022-12-05T06:26:12.936Z,-8.70
2022-12-05T06:28:39.841Z,-8.71
2022-12-05T06:31:17.335Z,-8.77
2022-12-05T06:33:44.821Z,-8.75
2022-12-05T06:36:15.067Z,-8.75
2022-12-05T06:38:42.712Z,-8.73
2022-12-05T06:41:13.505Z,-8.72
2022-12-05T06:43:40.584Z,-8.64
2022-12-05T06:46:08.940Z,-8.70
2022-12-05T06:48:35.908Z,-8.69
2022-12-05T06:51:03.232Z,-8.57
2022-12-05T06:53:29.883Z,-8.61
2022-12-05T06:56:02.234Z,-8.56
2022-12-05T06:58:29.757Z,-8.62
2022-12-05T07:01:15.177Z,-8.48
2022-12-05T07:03:44.182Z,-8.46
2022-12-05T07:06:11.426Z,-8.58
2022-12-05T07:08:38.173Z,-8.49
2022-12-05T07:11:05.256Z,-8.49
2022-12-05T07:13:32.676Z,-8.58
2022-12-05T07:16:00.060Z,-8.59
2022-12-05T07:18:27.279Z,-8.48
2022-12-05T07:21:14.790Z,-8.46
2022-12-05T07:23:44.048Z,-8.40
2022-12-05T07:26:14.129Z,-8.40
2022-12-05T07:28:40.753Z,-8.38
2022-12-05T07:31:10.836Z,-8.48
2022-12-05T07:33:38.416Z,-8.44
2022-12-05T07:36:09.176Z,-8.27
2022-12-05T07:38:36.110Z,-8.27
2022-12-05T07:41:13.458Z,-8.34
2022-12-05T07:43:41.849Z,-8.19
2022-12-05T07:46:11.562Z,-8.10
2022-12-05T10:46:19.840Z,-6.01
2022-12-05T10:49:43.032Z,-6.01
2022-12-05T10:52:33.397Z,-6.41
2022-12-05T10:55:29.834Z,-6.42
2022-12-05T10:58:25.520Z,-6.47
2022-12-05T11:08:03.896Z,-6.54
2022-12-05T11:11:27.714Z,-6.61
2022-12-05T11:14:30.859Z,-6.68
2022-12-05T11:27:01.375Z,-6.88
2022-12-05T11:30:51.800Z,-6.74
2022-12-05T11:33:45.300Z,-6.73
2022-12-05T11:39:56.097Z,-6.86
2022-12-05T11:43:33.608Z,-6.78
2022-12-05T11:50:08.991Z,-6.72
2022-12-05T11:55:03.462Z,-6.71
2022-12-05T11:56:58.876Z,-6.68
2022-12-05T12:07:47.973Z,-6.72
2022-12-05T12:10:44.795Z,-6.78
2022-12-05T12:13:44.151Z,-6.83
2022-12-05T12:16:36.775Z,-6.85
2022-12-05T12:19:19.688Z,-6.85
2022-12-05T12:22:06.240Z,-6.82
2022-12-05T12:25:26.281Z,-6.82
2022-12-05T12:28:32.019Z,-6.82
2022-12-05T12:31:37.290Z,-6.93
2022-12-05T12:34:35.051Z,-6.87
2022-12-05T12:38:13.782Z,-6.85
2022-12-05T12:41:25.452Z,-6.86
2022-12-05T12:44:45.904Z,-6.85
2022-12-05T12:48:14.895Z,-6.86
2022-12-05T12:57:13.944Z,-6.90
2022-12-05T13:01:12.723Z,-6.98
2022-12-05T13:03:51.681Z,-6.91
2022-12-05T13:06:54.647Z,-6.94
2022-12-05T13:09:48.786Z,-6.96
2022-12-05T13:19:09.765Z,-7.01
2022-12-05T13:28:34.498Z,-7.07
2022-12-05T13:32:04.045Z,-7.18
2022-12-05T13:35:08.122Z,-7.13
2022-12-05T13:41:44.273Z,-7.16
2022-12-05T13:44:42.261Z,-7.22
2022-12-05T13:51:30.527Z,-7.21
2022-12-05T13:54:32.594Z,-7.23
2022-12-05T13:57:15.507Z,-7.23
2022-12-05T14:00:37.768Z,-7.27
2022-12-05T14:03:52.071Z,-7.31
2022-12-05T14:07:21.365Z,-7.29
2022-12-05T14:10:22.924Z,-7.30
2022-12-05T14:13:02.790Z,-7.32
2022-12-05T14:15:51.821Z,-7.31
2022-12-05T14:20:14.941Z,-7.40
2022-12-05T14:22:51.590Z,-7.33
2022-12-05T14:29:14.049Z,-7.34
2022-12-05T14:35:05.326Z,-7.34
2022-12-05T14:37:36.370Z,-7.35
2022-12-05T14:40:18.608Z,-7.43
2022-12-05T14:43:27.256Z,-7.46
2022-12-05T14:45:53.856Z,-7.42
2022-12-05T14:48:20.742Z,-7.34
2022-12-05T14:50:52.829Z,-7.33
2022-12-05T14:53:39.397Z,-7.33
2022-12-05T14:56:16.191Z,-7.32
2022-12-05T14:58:50.646Z,-7.30
2022-12-05T15:01:35.320Z,-7.31
2022-12-05T15:04:11.665Z,-7.41
2022-12-05T15:06:49.929Z,-7.28
2022-12-05T15:09:43.695Z,-7.29
2022-12-05T15:12:38.137Z,-7.28
2022-12-05T15:15:31.280Z,-7.31
2022-12-05T15:18:05.619Z,-7.31
2022-12-05T15:20:44.226Z,-7.32
2022-12-05T15:23:40.183Z,-7.32
2022-12-05T15:29:12.080Z,-7.29
2022-12-05T15:31:46.286Z,-7.27
2022-12-05T15:34:29.392Z,-7.28
2022-12-05T15:37:13.751Z,-7.30
2022-12-05T15:39:54.671Z,-7.29
2022-12-05T15:42:30.247Z,-7.28
2022-12-05T15:45:12.061Z,-7.31
2022-12-05T15:47:40.421Z,-7.39
2022-12-05T15:50:17.435Z,-7.32
2022-12-05T15:53:03.988Z,-7.33
2022-12-05T15:55:38.847Z,-7.33
2022-12-05T15:58:23.460Z,-7.35
2022-12-05T16:00:59.369Z,-7.45
2022-12-05T16:03:26.208Z,-7.37
2022-12-05T16:06:00.795Z,-7.38
2022-12-05T16:08:40.615Z,-7.39
2022-12-05T16:11:09.675Z,-7.49
2022-12-05T16:13:42.670Z,-7.41
2022-12-05T19:15:05.283Z,-6.89
2022-12-05T19:17:32.433Z,-6.89
2022-12-05T19:20:01.132Z,-7.25
2022-12-05T19:22:27.908Z,-7.33
2022-12-05T19:24:54.908Z,-7.36
2022-12-05T19:27:21.680Z,-7.27
2022-12-05T19:29:48.489Z,-7.24
2022-12-05T19:32:15.555Z,-7.24
2022-12-05T19:34:42.697Z,-7.27
2022-12-05T19:37:09.478Z,-7.28
2022-12-05T19:39:37.719Z,-7.35
2022-12-05T19:42:04.758Z,-7.29
2022-12-05T19:44:32.037Z,-7.31
2022-12-05T19:46:58.993Z,-7.33
2022-12-05T19:49:25.594Z,-7.34
2022-12-05T19:51:52.703Z,-7.37
2022-12-05T19:54:21.885Z,-7.44
2022-12-05T19:56:48.575Z,-7.35
2022-12-05T19:59:18.390Z,-7.36
2022-12-05T20:01:46.002Z,-7.46
2022-12-05T20:04:15.132Z,-7.37
2022-12-05T20:06:45.338Z,-7.37
2022-12-05T20:09:14.040Z,-7.35
2022-12-05T20:11:47.095Z,-7.35
2022-12-05T20:14:18.355Z,-7.33
2022-12-05T20:16:45.634Z,-7.32
2022-12-05T20:19:12.603Z,-7.31
2022-12-05T20:21:42.044Z,-7.31
2022-12-05T20:24:10.440Z,-7.38
2022-12-05T20:26:40.593Z,-7.28
2022-12-05T20:29:07.840Z,-7.28
2022-12-05T20:31:37.422Z,-7.27
2022-12-05T20:34:04.943Z,-7.36
2022-12-05T20:36:33.693Z,-7.38
2022-12-05T20:39:03.313Z,-7.27
2022-12-05T20:41:30.493Z,-7.25
2022-12-05T20:44:00.067Z,-7.27
2022-12-05T20:46:28.382Z,-7.25
2022-12-05T20:48:56.326Z,-7.23
2022-12-05T20:51:29.031Z,-7.34
2022-12-05T20:53:57.887Z,-7.21
2022-12-05T20:56:28.369Z,-7.22
2022-12-05T20:58:58.083Z,-7.30
2022-12-05T21:01:26.497Z,-7.21
2022-12-05T21:03:55.080Z,-7.20
2022-12-05T21:06:27.500Z,-7.33
2022-12-05T21:08:55.557Z,-7.22
2022-12-05T21:11:23.649Z,-7.18
2022-12-05T21:13:50.726Z,-7.18
2022-12-05T21:16:20.872Z,-7.19
2022-12-05T21:18:48.137Z,-7.17
2022-12-05T21:21:17.684Z,-7.19
2022-12-05T21:23:46.891Z,-7.17
2022-12-05T21:26:16.058Z,-7.17
2022-12-05T21:28:44.445Z,-7.16
2022-12-05T21:31:24.071Z,-7.16
2022-12-05T21:33:57.270Z,-7.16
2022-12-05T21:36:25.739Z,-7.17
2022-12-05T21:38:55.909Z,-7.26
2022-12-05T21:41:24.227Z,-7.26
2022-12-05T21:43:55.093Z,-7.20
2022-12-05T21:46:23.460Z,-7.21
2022-12-05T21:48:50.182Z,-7.28
2022-12-05T21:51:17.500Z,-7.25
2022-12-05T21:53:44.361Z,-7.25
2022-12-05T21:56:16.951Z,-7.24
2022-12-05T21:58:45.996Z,-7.26
2022-12-05T22:01:17.975Z,-7.27
2022-12-05T22:03:45.710Z,-7.32
2022-12-05T22:06:15.358Z,-7.31
2022-12-05T22:08:42.932Z,-7.43
2022-12-05T22:11:12.662Z,-7.42
2022-12-05T22:13:40.310Z,-7.34
2022-12-05T22:16:08.148Z,-7.34
2022-12-05T22:18:35.551Z,-7.45
2022-12-05T22:21:05.613Z,-7.39
2022-12-05T22:23:33.619Z,-7.49
2022-12-05T22:26:03.616Z,-7.43
2022-12-05T22:28:30.907Z,-7.43
2022-12-05T22:30:59.149Z,-7.45
2022-12-05T22:33:27.044Z,-7.50
2022-12-05T22:35:56.766Z,-7.49
2022-12-05T22:38:25.430Z,-7.50
2022-12-05T22:41:06.667Z,-7.60
2022-12-05T22:43:34.725Z,-7.52
2022-12-05T22:46:07.080Z,-7.52
2022-12-05T22:48:34.401Z,-7.53
2022-12-05T22:51:01.800Z,-7.53
2022-12-05T22:53:29.321Z,-7.55
2022-12-05T22:56:21.774Z,-7.55
2022-12-05T22:58:49.027Z,-7.55
2022-12-05T23:01:16.904Z,-7.56
2022-12-05T23:03:46.190Z,-7.56
2022-12-05T23:06:15.521Z,-7.57
2022-12-05T23:08:43.414Z,-7.59
2022-12-05T23:11:11.326Z,-7.60
2022-12-05T23:13:39.415Z,-7.65
2022-12-05T23:16:12.176Z,-7.62
2022-12-05T23:18:48.048Z,-7.61
2022-12-05T23:21:23.223Z,-7.60
2022-12-05T23:23:52.884Z,-7.62
2022-12-05T23:26:21.824Z,-7.64
2022-12-05T23:28:48.985Z,-7.63
2022-12-05T23:31:16.418Z,-7.74
2022-12-05T23:33:43.318Z,-7.67
2022-12-05T23:36:10.942Z,-7.68
2022-12-05T23:38:39.959Z,-7.69
2022-12-05T23:41:17.312Z,-7.71
2022-12-05T23:43:44.916Z,-7.75
2022-12-05T23:46:13.144Z,-7.81
2022-12-05T23:48:40.184Z,-7.87
2022-12-05T23:51:19.729Z,-7.95
2022-12-05T23:53:51.208Z,-8.07
2022-12-05T23:56:21.558Z,-7.99
2022-12-05T23:58:48.215Z,-8.04
